createdAt,value
2023-04-26T00:00:32.013Z,98822.00
2023-04-26T00:03:05.460Z,98820.00
2023-04-26T00:05:36.950Z,98821.00
2023-04-26T00:08:07.010Z,98817.00
2023-04-26T00:10:36.380Z,98826.00
2023-04-26T00:13:06.812Z,98826.00
2023-04-26T00:15:38.971Z,98827.00
2023-04-26T00:18:08.406Z,98824.00
2023-04-26T00:20:37.783Z,98829.00
2023-04-26T00:23:10.236Z,98831.00
2023-04-26T00:25:40.277Z,98827.00
2023-04-26T00:28:09.618Z,98829.00
2023-04-26T00:30:42.266Z,98826.00
2023-04-26T00:33:11.653Z,98823.00
2023-04-26T00:35:41.046Z,98824.00
2023-04-26T00:38:10.368Z,98835.00
2023-04-26T00:40:39.648Z,98840.00
2023-04-26T00:43:09.243Z,98844.00
2023-04-26T00:45:38.990Z,98845.00
2023-04-26T00:48:08.499Z,98848.00
2023-04-26T00:50:37.919Z,98853.00
2023-04-26T00:53:08.753Z,98850.00
2023-04-26T00:55:38.403Z,98858.00
2023-04-26T00:58:08.097Z,98867.00
2023-04-26T01:00:37.577Z,98868.00
2023-04-26T01:03:07.080Z,98874.00
2023-04-26T01:05:37.785Z,98878.00
2023-04-26T01:08:08.309Z,98870.00
2023-04-26T01:10:38.314Z,98881.00
2023-04-26T01:13:07.821Z,98882.00
2023-04-26T01:15:38.023Z,98895.00
2023-04-26T01:18:07.557Z,98907.00
2023-04-26T01:20:36.899Z,98898.00
2023-04-26T01:23:07.120Z,98908.00
2023-04-26T01:25:38.596Z,98901.00
2023-04-26T01:28:08.116Z,98913.00
2023-04-26T01:30:37.776Z,98909.00
2023-04-26T01:33:07.566Z,98913.00
2023-04-26T01:35:38.269Z,98918.00
2023-04-26T01:38:10.570Z,98923.00
2023-04-26T01:40:39.776Z,98923.00
2023-04-26T01:43:09.367Z,98918.00
2023-04-26T01:45:39.029Z,98916.00
2023-04-26T01:48:12.321Z,98917.00
2023-04-26T01:50:41.856Z,98915.00
2023-04-26T01:53:11.167Z,98919.00
2023-04-26T01:55:44.730Z,98920.00
2023-04-26T01:58:16.321Z,98927.00
2023-04-26T02:00:51.120Z,98924.00
2023-04-26T02:03:23.238Z,98931.00
2023-04-26T02:05:53.205Z,98936.00
2023-04-26T02:08:22.406Z,98937.00
2023-04-26T02:10:51.626Z,98936.00
2023-04-26T02:13:20.846Z,98948.00
2023-04-26T02:15:52.270Z,98943.00
2023-04-26T02:18:22.924Z,98940.00
2023-04-26T02:20:52.364Z,98937.00
2023-04-26T02:23:21.641Z,98930.00
2023-04-26T02:25:51.080Z,98931.00
2023-04-26T02:28:20.435Z,98929.00
2023-04-26T02:30:49.620Z,98931.00
2023-04-26T02:33:18.817Z,98934.00
2023-04-26T02:35:47.894Z,98934.00
2023-04-26T02:38:17.076Z,98928.00
2023-04-26T02:40:46.521Z,98932.00
2023-04-26T02:43:15.892Z,98937.00
2023-04-26T02:45:45.839Z,98925.00
2023-04-26T02:48:15.001Z,98926.00
2023-04-26T02:50:44.206Z,98918.00
2023-04-26T02:53:13.670Z,98911.00
2023-04-26T02:55:42.837Z,98909.00
2023-04-26T02:58:12.079Z,98913.00
2023-04-26T03:00:47.190Z,98909.00
2023-04-26T03:03:17.884Z,98910.00
2023-04-26T03:05:47.769Z,98903.00
2023-04-26T03:08:16.945Z,98912.00
2023-04-26T03:10:49.302Z,98910.00
2023-04-26T03:13:18.550Z,98914.00
2023-04-26T03:15:48.306Z,98912.00
2023-04-26T03:18:17.580Z,98904.00
2023-04-26T03:20:47.975Z,98900.00
2023-04-26T03:23:17.431Z,98897.00
2023-04-26T03:25:47.758Z,98893.00
2023-04-26T03:28:17.451Z,98886.00
2023-04-26T03:30:46.883Z,98882.00
2023-04-26T03:33:16.093Z,98891.00
2023-04-26T03:35:46.074Z,98882.00
2023-04-26T03:38:15.531Z,98879.00
2023-04-26T03:40:44.748Z,98882.00
2023-04-26T03:43:14.025Z,98881.00
2023-04-26T03:45:43.444Z,98872.00
2023-04-26T03:48:12.834Z,98876.00
2023-04-26T03:50:42.265Z,98868.00
2023-04-26T03:53:12.633Z,98867.00
2023-04-26T03:55:41.866Z,98861.00
2023-04-26T03:58:11.219Z,98865.00
2023-04-26T04:00:44.723Z,98864.00
2023-04-26T04:03:14.207Z,98863.00
2023-04-26T04:05:44.171Z,98862.00
2023-04-26T04:08:13.489Z,98858.00
2023-04-26T04:10:43.791Z,98863.00
2023-04-26T04:13:13.100Z,98861.00
2023-04-26T04:15:42.384Z,98867.00
2023-04-26T04:18:12.115Z,98865.00
2023-04-26T04:20:43.150Z,98867.00
2023-04-26T04:23:13.004Z,98866.00
2023-04-26T04:25:42.298Z,98865.00
2023-04-26T04:28:13.008Z,98860.00
2023-04-26T04:30:45.171Z,98857.00
2023-04-26T04:33:14.415Z,98860.00
2023-04-26T04:35:44.382Z,98864.00
2023-04-26T04:38:14.203Z,98861.00
2023-04-26T04:40:43.462Z,98854.00
2023-04-26T04:43:13.364Z,98857.00
2023-04-26T04:45:42.668Z,98845.00
2023-04-26T04:48:12.938Z,98842.00
2023-04-26T04:50:43.101Z,98837.00
2023-04-26T04:53:15.361Z,98839.00
2023-04-26T04:55:44.760Z,98838.00
2023-04-26T04:58:15.727Z,98829.00
2023-04-26T05:00:46.723Z,98817.00
2023-04-26T05:03:17.167Z,98810.00
2023-04-26T05:05:46.764Z,98817.00
2023-04-26T05:08:16.866Z,98809.00
2023-04-26T05:10:47.040Z,98799.00
2023-04-26T05:13:16.158Z,98797.00
2023-04-26T05:15:45.382Z,98804.00
2023-04-26T05:18:14.568Z,98800.00
2023-04-26T05:20:43.787Z,98800.00
2023-04-26T05:23:12.980Z,98803.00
2023-04-26T05:25:42.185Z,98797.00
2023-04-26T05:28:13.684Z,98793.00
2023-04-26T05:30:43.100Z,98786.00
2023-04-26T05:33:12.337Z,98794.00
2023-04-26T05:35:41.997Z,98784.00
2023-04-26T05:38:11.142Z,98770.00
2023-04-26T05:40:40.312Z,98785.00
2023-04-26T05:43:10.445Z,98772.00
2023-04-26T05:45:40.114Z,98761.00
2023-04-26T05:48:09.493Z,98754.00
2023-04-26T05:50:40.059Z,98758.00
2023-04-26T05:53:09.277Z,98744.00
2023-04-26T05:55:39.278Z,98748.00
2023-04-26T05:58:08.604Z,98740.00
2023-04-26T06:00:39.107Z,98738.00
2023-04-26T06:03:08.777Z,98733.00
2023-04-26T06:05:39.760Z,98733.00
2023-04-26T06:08:09.763Z,98733.00
2023-04-26T06:10:39.266Z,98725.00
2023-04-26T06:13:08.745Z,98728.00
2023-04-26T06:15:38.036Z,98719.00
2023-04-26T06:18:08.174Z,98724.00
2023-04-26T06:20:37.479Z,98709.00
2023-04-26T06:23:06.840Z,98705.00
2023-04-26T06:25:38.074Z,98705.00
2023-04-26T06:28:07.533Z,98698.00
2023-04-26T06:30:37.001Z,98689.00
2023-04-26T06:33:06.426Z,98680.00
2023-04-26T06:35:40.781Z,98670.00
2023-04-26T06:38:10.253Z,98673.00
2023-04-26T06:40:39.542Z,98661.00
2023-04-26T06:43:08.812Z,98652.00
2023-04-26T06:45:38.228Z,98647.00
2023-04-26T06:48:08.077Z,98646.00
2023-04-26T06:50:41.070Z,98644.00
2023-04-26T06:53:10.649Z,98640.00
2023-04-26T06:55:40.009Z,98627.00
2023-04-26T06:58:09.588Z,98629.00
2023-04-26T07:00:39.159Z,98626.00
2023-04-26T07:03:08.563Z,98621.00
2023-04-26T07:05:38.020Z,98611.00
2023-04-26T07:08:07.607Z,98606.00
2023-04-26T07:10:38.088Z,98598.00
2023-04-26T07:13:09.501Z,98600.00
2023-04-26T07:15:39.069Z,98585.00
2023-04-26T07:18:08.400Z,98574.00
2023-04-26T07:20:37.752Z,98571.00
2023-04-26T07:23:07.857Z,98565.00
2023-04-26T07:25:37.107Z,98554.00
2023-04-26T07:28:06.616Z,98554.00
2023-04-26T07:30:35.921Z,98543.00
2023-04-26T07:33:05.781Z,98536.00
2023-04-26T07:35:36.637Z,98525.00
2023-04-26T07:38:05.977Z,98517.00
2023-04-26T07:40:35.212Z,98520.00
2023-04-26T07:43:04.423Z,98511.00
2023-04-26T07:45:34.777Z,98504.00
2023-04-26T07:48:04.009Z,98508.00
2023-04-26T07:50:33.481Z,98507.00
2023-04-26T07:53:02.733Z,98510.00
2023-04-26T07:55:32.122Z,98512.00
2023-04-26T07:58:01.892Z,98501.00
2023-04-26T08:00:31.476Z,98499.00
2023-04-26T08:03:01.051Z,98491.00
2023-04-26T08:05:31.279Z,98486.00
2023-04-26T08:08:04.154Z,98503.00
2023-04-26T08:10:33.351Z,98499.00
2023-04-26T08:13:04.424Z,98503.00
2023-04-26T08:15:33.650Z,98499.00
2023-04-26T08:18:02.936Z,98499.00
2023-04-26T08:20:33.904Z,98479.00
2023-04-26T08:23:03.047Z,98475.00
2023-04-26T08:25:32.350Z,98471.00
2023-04-26T08:28:01.693Z,98466.00
2023-04-26T08:30:31.007Z,98464.00
2023-04-26T08:33:00.332Z,98474.00
2023-04-26T08:35:29.585Z,98464.00
2023-04-26T08:37:58.790Z,98468.00
2023-04-26T08:40:28.228Z,98470.00
2023-04-26T08:42:57.430Z,98466.00
2023-04-26T08:45:27.004Z,98462.00
2023-04-26T08:48:06.800Z,98455.00
2023-04-26T08:50:40.043Z,98454.00
2023-04-26T08:53:11.691Z,98438.00
2023-04-26T08:55:43.726Z,98443.00
2023-04-26T08:58:14.317Z,98442.00
2023-04-26T09:01:00.865Z,98438.00
2023-04-26T09:03:31.574Z,98434.00
2023-04-26T09:06:07.289Z,98437.00
2023-04-26T09:08:42.375Z,98439.00
2023-04-26T09:11:11.613Z,98431.00
2023-04-26T09:13:40.813Z,98424.00
2023-04-26T09:16:10.501Z,98428.00
2023-04-26T09:18:53.530Z,98429.00
2023-04-26T09:21:22.860Z,98431.00
2023-04-26T09:24:05.384Z,98437.00
2023-04-26T09:26:34.660Z,98439.00
2023-04-26T09:29:21.483Z,98445.00
2023-04-26T09:31:51.944Z,98440.00
2023-04-26T09:34:22.170Z,98441.00
2023-04-26T09:36:59.305Z,98438.00
2023-04-26T09:39:43.034Z,98429.00
2023-04-26T09:42:12.931Z,98433.00
2023-04-26T09:44:42.324Z,98434.00
2023-04-26T09:47:13.495Z,98432.00
2023-04-26T09:49:52.349Z,98436.00
2023-04-26T09:52:21.957Z,98440.00
2023-04-26T09:54:54.212Z,98438.00
2023-04-26T09:57:24.706Z,98439.00
2023-04-26T09:59:57.328Z,98440.00
2023-04-26T10:02:31.006Z,98439.00
2023-04-26T10:05:00.888Z,98431.00
2023-04-26T10:07:32.121Z,98426.00
2023-04-26T10:10:01.681Z,98430.00
2023-04-26T10:12:31.202Z,98426.00
2023-04-26T10:15:00.655Z,98430.00
2023-04-26T10:17:30.012Z,98430.00
2023-04-26T10:20:02.668Z,98435.00
2023-04-26T10:22:41.226Z,98434.00
2023-04-26T10:25:11.511Z,98432.00
2023-04-26T10:27:47.953Z,98436.00
2023-04-26T10:30:19.465Z,98443.00
2023-04-26T10:32:54.720Z,98445.00
2023-04-26T10:35:30.183Z,98445.00
2023-04-26T10:38:02.636Z,98444.00
2023-04-26T10:40:41.191Z,98437.00
2023-04-26T10:43:16.262Z,98445.00
2023-04-26T10:45:50.875Z,98451.00
2023-04-26T10:48:24.484Z,98453.00
2023-04-26T10:51:02.842Z,98466.00
2023-04-26T10:53:48.269Z,98464.00
2023-04-26T10:56:29.674Z,98478.00
2023-04-26T11:01:47.735Z,98483.00
2023-04-26T11:04:17.499Z,98489.00
2023-04-26T11:07:01.533Z,98501.00
2023-04-26T11:09:42.248Z,98514.00
2023-04-26T11:12:17.973Z,98518.00
2023-04-26T11:14:48.097Z,98508.00
2023-04-26T11:17:17.317Z,98509.00
2023-04-26T11:19:49.001Z,98517.00
2023-04-26T11:22:22.970Z,98519.00
2023-04-26T11:24:52.549Z,98524.00
2023-04-26T11:27:21.720Z,98536.00
2023-04-26T11:29:50.861Z,98538.00
2023-04-26T11:32:21.798Z,98546.00
2023-04-26T11:34:52.583Z,98549.00
2023-04-26T11:37:22.900Z,98553.00
2023-04-26T11:39:52.470Z,98557.00
2023-04-26T11:42:27.780Z,98558.00
2023-04-26T11:45:00.599Z,98556.00
2023-04-26T11:47:31.876Z,98562.00
2023-04-26T11:50:02.185Z,98567.00
2023-04-26T11:52:32.197Z,98575.00
2023-04-26T11:55:09.292Z,98571.00
2023-04-26T11:57:38.789Z,98575.00
2023-04-26T12:00:16.855Z,98571.00
2023-04-26T12:02:50.600Z,98581.00
2023-04-26T12:05:32.335Z,98592.00
2023-04-26T12:08:02.606Z,98594.00
2023-04-26T12:10:37.682Z,98594.00
2023-04-26T12:13:07.015Z,98598.00
2023-04-26T12:15:36.382Z,98599.00
2023-04-26T12:18:11.511Z,98602.00
2023-04-26T12:20:43.004Z,98603.00
2023-04-26T12:23:15.955Z,98607.00
2023-04-26T12:26:01.423Z,98616.00
2023-04-26T12:28:30.802Z,98620.00
2023-04-26T12:31:02.007Z,98636.00
2023-04-26T12:33:32.163Z,98638.00
2023-04-26T12:36:12.860Z,98647.00
2023-04-26T12:38:42.499Z,98656.00
2023-04-26T12:41:11.808Z,98653.00
2023-04-26T12:43:41.011Z,98656.00
2023-04-26T12:46:10.202Z,98662.00
2023-04-26T12:48:39.554Z,98666.00
2023-04-26T12:51:08.666Z,98669.00
2023-04-26T12:53:37.857Z,98669.00
2023-04-26T12:56:07.958Z,98663.00
2023-04-26T12:58:37.015Z,98673.00
2023-04-26T13:01:06.253Z,98675.00
2023-04-26T13:03:35.471Z,98674.00
2023-04-26T13:06:04.914Z,98679.00
2023-04-26T13:08:34.066Z,98677.00
2023-04-26T13:11:03.501Z,98683.00
2023-04-26T13:13:42.255Z,98688.00
2023-04-26T13:16:13.545Z,98679.00
2023-04-26T13:18:43.244Z,98687.00
2023-04-26T13:21:12.362Z,98687.00
2023-04-26T13:23:41.709Z,98700.00
2023-04-26T13:26:10.872Z,98700.00
2023-04-26T13:28:40.037Z,98707.00
2023-04-26T13:31:09.431Z,98706.00
2023-04-26T13:33:38.623Z,98708.00
2023-04-26T13:36:08.319Z,98705.00
2023-04-26T13:38:37.870Z,98704.00
2023-04-26T13:41:07.152Z,98700.00
2023-04-26T13:43:42.046Z,98690.00
2023-04-26T13:46:11.418Z,98702.00
2023-04-26T13:48:40.696Z,98706.00
2023-04-26T13:51:10.544Z,98703.00
2023-04-26T13:53:40.172Z,98704.00
2023-04-26T13:56:10.555Z,98692.00
2023-04-26T13:58:41.864Z,98693.00
2023-04-26T14:01:11.577Z,98697.00
2023-04-26T14:03:45.477Z,98692.00
2023-04-26T14:06:14.855Z,98688.00
2023-04-26T14:08:45.330Z,98685.00
2023-04-26T14:11:15.293Z,98688.00
2023-04-26T14:13:46.326Z,98690.00
2023-04-26T14:16:15.548Z,98698.00
2023-04-26T14:18:49.144Z,98692.00
2023-04-26T14:21:22.596Z,98688.00
2023-04-26T14:23:52.105Z,98696.00
2023-04-26T14:26:21.436Z,98699.00
2023-04-26T14:28:53.494Z,98701.00
2023-04-26T14:31:27.607Z,98715.00
2023-04-26T14:33:57.597Z,98714.00
2023-04-26T14:36:27.712Z,98706.00
2023-04-26T14:38:57.043Z,98713.00
2023-04-26T14:41:29.284Z,98725.00
2023-04-26T14:44:01.050Z,98715.00
2023-04-26T14:46:30.323Z,98716.00
2023-04-26T14:48:59.540Z,98714.00
2023-04-26T14:51:35.734Z,98705.00
2023-04-26T14:54:05.194Z,98706.00
2023-04-26T14:56:41.037Z,98704.00
2023-04-26T14:59:15.943Z,98701.00
2023-04-26T15:01:45.384Z,98699.00
2023-04-26T15:04:20.642Z,98696.00
2023-04-26T15:06:53.306Z,98702.00
2023-04-26T15:09:25.356Z,98698.00
2023-04-26T15:11:59.093Z,98707.00
2023-04-26T15:14:28.315Z,98699.00
2023-04-26T15:16:59.229Z,98698.00
2023-04-26T15:19:31.430Z,98694.00
2023-04-26T15:22:03.818Z,98688.00
2023-04-26T15:24:43.947Z,98683.00
2023-04-26T15:27:13.919Z,98683.00
2023-04-26T15:29:44.973Z,98680.00
2023-04-26T15:32:14.358Z,98677.00
2023-04-26T15:34:46.018Z,98677.00
2023-04-26T15:37:15.649Z,98676.00
2023-04-26T15:39:48.249Z,98677.00
2023-04-26T15:42:23.275Z,98680.00
2023-04-26T15:44:54.876Z,98689.00
2023-04-26T15:47:24.244Z,98674.00
2023-04-26T15:49:58.700Z,98680.00
2023-04-26T15:52:28.714Z,98674.00
2023-04-26T15:54:58.109Z,98671.00
2023-04-26T15:57:27.527Z,98676.00
2023-04-26T15:59:56.993Z,98684.00
2023-04-26T16:02:31.634Z,98684.00
2023-04-26T16:05:04.474Z,98681.00
2023-04-26T16:07:36.672Z,98677.00
2023-04-26T16:10:12.517Z,98681.00
2023-04-26T16:12:43.204Z,98670.00
2023-04-26T16:15:12.950Z,98666.00
2023-04-26T16:17:47.202Z,98666.00
2023-04-26T16:20:16.522Z,98654.00
2023-04-26T16:22:48.084Z,98653.00
2023-04-26T16:25:18.433Z,98649.00
2023-04-26T16:27:47.874Z,98652.00
2023-04-26T16:30:20.094Z,98646.00
2023-04-26T16:32:49.509Z,98648.00
2023-04-26T16:35:19.174Z,98646.00
2023-04-26T16:37:53.930Z,98640.00
2023-04-26T16:40:24.553Z,98636.00
2023-04-26T16:42:53.920Z,98631.00
2023-04-26T16:45:23.241Z,98624.00
2023-04-26T16:47:52.522Z,98620.00
2023-04-26T16:50:21.981Z,98623.00
2023-04-26T16:52:51.261Z,98616.00
2023-04-26T16:55:20.664Z,98613.00
2023-04-26T16:57:49.936Z,98609.00
2023-04-26T17:00:19.972Z,98604.00
2023-04-26T17:02:51.411Z,98609.00
2023-04-26T17:05:21.039Z,98604.00
2023-04-26T17:07:50.743Z,98605.00
2023-04-26T17:10:20.267Z,98598.00
2023-04-26T17:12:49.499Z,98601.00
2023-04-26T17:15:18.801Z,98593.00
2023-04-26T17:17:48.141Z,98596.00
2023-04-26T17:20:17.886Z,98591.00
2023-04-26T17:22:47.167Z,98590.00
2023-04-26T17:25:16.736Z,98582.00
2023-04-26T17:27:46.045Z,98572.00
2023-04-26T17:30:16.980Z,98569.00
2023-04-26T17:32:47.043Z,98565.00
2023-04-26T17:35:16.760Z,98568.00
2023-04-26T17:37:50.829Z,98562.00
2023-04-26T17:40:20.652Z,98565.00
2023-04-26T17:42:49.925Z,98568.00
2023-04-26T17:45:19.236Z,98569.00
2023-04-26T17:47:48.632Z,98569.00
2023-04-26T17:50:19.569Z,98566.00
2023-04-26T17:52:48.998Z,98566.00
2023-04-26T17:55:18.383Z,98575.00
2023-04-26T17:57:47.834Z,98560.00
2023-04-26T18:00:17.741Z,98567.00
2023-04-26T18:02:47.655Z,98568.00
2023-04-26T18:05:17.433Z,98569.00
2023-04-26T18:07:47.179Z,98562.00
2023-04-26T18:10:16.511Z,98568.00
2023-04-26T18:12:45.776Z,98560.00
2023-04-26T18:15:15.150Z,98551.00
2023-04-26T18:17:44.699Z,98564.00
2023-04-26T18:20:14.641Z,98565.00
2023-04-26T18:22:44.103Z,98564.00
2023-04-26T18:25:13.337Z,98569.00
2023-04-26T18:27:42.739Z,98563.00
2023-04-26T18:30:13.985Z,98572.00
2023-04-26T18:32:43.276Z,98569.00
2023-04-26T18:35:12.891Z,98566.00
2023-04-26T18:37:43.014Z,98563.00
2023-04-26T18:40:13.118Z,98558.00
2023-04-26T18:42:43.017Z,98551.00
2023-04-26T18:45:13.180Z,98558.00
2023-04-26T18:47:42.810Z,98555.00
2023-04-26T18:50:13.401Z,98563.00
2023-04-26T18:52:42.826Z,98568.00
2023-04-26T18:55:12.334Z,98567.00
2023-04-26T18:57:41.613Z,98561.00
2023-04-26T19:00:11.945Z,98570.00
2023-04-26T19:02:42.092Z,98577.00
2023-04-26T19:05:16.169Z,98577.00
2023-04-26T19:07:46.616Z,98569.00
2023-04-26T19:10:17.444Z,98578.00
2023-04-26T19:12:46.931Z,98575.00
2023-04-26T19:15:16.767Z,98582.00
2023-04-26T19:17:46.675Z,98583.00
2023-04-26T19:20:16.163Z,98575.00
2023-04-26T19:22:48.197Z,98581.00
2023-04-26T19:25:21.449Z,98579.00
2023-04-26T19:27:51.824Z,98572.00
2023-04-26T19:30:21.270Z,98579.00
2023-04-26T19:32:50.539Z,98586.00
2023-04-26T19:35:19.805Z,98590.00
2023-04-26T19:37:49.075Z,98594.00
2023-04-26T19:40:18.479Z,98592.00
2023-04-26T19:42:47.772Z,98597.00
2023-04-26T19:45:21.317Z,98594.00
2023-04-26T19:47:50.648Z,98589.00
2023-04-26T19:50:20.142Z,98588.00
2023-04-26T19:52:49.377Z,98584.00
2023-04-26T19:55:18.679Z,98586.00
2023-04-26T19:57:49.182Z,98575.00
2023-04-26T20:00:18.689Z,98577.00
2023-04-26T20:02:48.463Z,98580.00
2023-04-26T20:05:17.953Z,98573.00
2023-04-26T20:07:47.359Z,98579.00
2023-04-26T20:10:16.858Z,98576.00
2023-04-26T20:12:46.229Z,98574.00
2023-04-26T20:15:16.977Z,98571.00
2023-04-26T20:17:46.753Z,98577.00
2023-04-26T20:20:16.391Z,98583.00
2023-04-26T20:22:45.715Z,98578.00
2023-04-26T20:25:15.092Z,98588.00
2023-04-26T20:27:44.407Z,98594.00
2023-04-26T20:30:14.923Z,98598.00
2023-04-26T20:32:45.150Z,98606.00
2023-04-26T20:35:14.670Z,98606.00
2023-04-26T20:37:44.042Z,98607.00
2023-04-26T20:40:13.738Z,98605.00
2023-04-26T20:42:43.364Z,98603.00
2023-04-26T20:45:13.354Z,98609.00
2023-04-26T20:47:42.790Z,98616.00
2023-04-26T20:50:13.220Z,98615.00
2023-04-26T20:52:42.669Z,98614.00
2023-04-26T20:55:12.314Z,98616.00
2023-04-26T20:57:42.771Z,98612.00
2023-04-26T21:00:12.635Z,98607.00
2023-04-26T21:02:42.628Z,98606.00
2023-04-26T21:05:12.603Z,98608.00
2023-04-26T21:07:42.436Z,98604.00
2023-04-26T21:10:12.219Z,98610.00
2023-04-26T21:12:42.976Z,98616.00
2023-04-26T21:15:12.782Z,98616.00
2023-04-26T21:17:41.982Z,98616.00
2023-04-26T21:20:12.061Z,98624.00
2023-04-26T21:22:41.218Z,98619.00
2023-04-26T21:25:11.592Z,98617.00
2023-04-26T21:27:40.856Z,98622.00
2023-04-26T21:30:10.951Z,98619.00
2023-04-26T21:32:43.470Z,98626.00
2023-04-26T21:35:12.998Z,98626.00
2023-04-26T21:37:42.221Z,98627.00
2023-04-26T21:40:11.957Z,98629.00
2023-04-26T21:42:44.619Z,98634.00
2023-04-26T21:45:18.491Z,98633.00
2023-04-26T21:47:47.736Z,98638.00
2023-04-26T21:50:17.070Z,98632.00
2023-04-26T21:52:46.595Z,98628.00
2023-04-26T21:55:15.876Z,98638.00
2023-04-26T21:57:45.107Z,98647.00
2023-04-26T22:00:14.753Z,98649.00
2023-04-26T22:02:44.142Z,98658.00
2023-04-26T22:05:13.835Z,98654.00
2023-04-26T22:07:43.328Z,98671.00
2023-04-26T22:10:13.011Z,98666.00
2023-04-26T22:12:42.264Z,98663.00
2023-04-26T22:15:12.043Z,98669.00
2023-04-26T22:17:41.329Z,98672.00
2023-04-26T22:20:11.567Z,98668.00
2023-04-26T22:22:41.190Z,98669.00
2023-04-26T22:25:11.070Z,98674.00
2023-04-26T22:27:40.377Z,98671.00
2023-04-26T22:30:24.050Z,98660.00
2023-04-26T22:32:58.153Z,98667.00
2023-04-26T22:35:29.065Z,98667.00
2023-04-26T22:37:58.320Z,98664.00
2023-04-26T22:40:27.530Z,98674.00
2023-04-26T22:42:57.197Z,98666.00
2023-04-26T22:45:26.915Z,98674.00
2023-04-26T22:47:56.130Z,98674.00
2023-04-26T22:50:25.653Z,98690.00
2023-04-26T22:52:54.855Z,98690.00
2023-04-26T22:55:24.458Z,98702.00
2023-04-26T22:57:53.837Z,98708.00
2023-04-26T23:00:25.721Z,98712.00
2023-04-26T23:02:55.234Z,98717.00
2023-04-26T23:05:25.194Z,98719.00
2023-04-26T23:07:54.395Z,98730.00
2023-04-26T23:10:23.709Z,98722.00
2023-04-26T23:12:52.895Z,98716.00
2023-04-26T23:15:22.319Z,98724.00
2023-04-26T23:17:51.552Z,98725.00
2023-04-26T23:20:20.848Z,98724.00
2023-04-26T23:22:50.285Z,98733.00
2023-04-26T23:25:20.921Z,98742.00
2023-04-26T23:27:50.108Z,98747.00
2023-04-26T23:30:19.665Z,98744.00
2023-04-26T23:32:48.945Z,98749.00
2023-04-26T23:35:18.257Z,98750.00
2023-04-26T23:37:47.477Z,98752.00
2023-04-26T23:40:16.786Z,98747.00
2023-04-26T23:42:46.051Z,98757.00
2023-04-26T23:45:15.265Z,98773.00
2023-04-26T23:47:44.600Z,98765.00
2023-04-26T23:50:13.871Z,98777.00
2023-04-26T23:52:43.226Z,98781.00
2023-04-26T23:55:12.693Z,98785.00
2023-04-26T23:57:42.053Z,98783.00
